Time;durP1;ratioP1;P1;durP2;ratioP2;P2;SDS_P1;SDS_P2;PMS_P1;PMS_P2;Temp;Humidity;BMP_temperature;BMP_pressure;BME280_temperature;BME280_humidity;BME280_pressure;Samples;Min_cycle;Max_cycle;Signal;HPM_P1;HPM_P2
2022/09/08 00:00:39;;;;;;;3.78;1.50;;;16.40;99.90;;;15.41;64.19;100981.19;4977752;28;20045;-77
2022/09/08 00:03:13;;;;;;;9.57;1.70;;;16.40;99.90;;;15.46;64.00;100973.78;4970216;28;20034;-77
2022/09/08 00:05:55;;;;;;;6.38;1.80;;;16.40;99.90;;;15.40;64.09;100968.88;4966227;28;20022;-77
2022/09/08 00:08:20;;;;;;;4.40;1.40;;;16.40;99.90;;;15.42;63.50;100968.75;4989839;28;20031;-77
2022/09/08 00:11:00;;;;;;;9.50;1.92;;;16.40;99.90;;;15.44;63.26;100974.81;4978653;28;20070;-77
2022/09/08 00:13:29;;;;;;;10.50;1.85;;;16.40;99.90;;;15.39;63.66;100972.47;4975732;28;20030;-77
2022/09/08 00:15:56;;;;;;;4.50;1.50;;;16.40;99.90;;;15.37;63.69;100974.38;4975645;28;20029;-77
2022/09/08 00:18:24;;;;;;;14.27;1.73;;;16.40;99.90;;;15.37;63.46;100975.22;4963233;28;20027;-77
2022/09/08 00:20:50;;;;;;;5.43;1.60;;;16.40;99.90;;;15.38;63.14;100976.94;4975828;28;20051;-77
2022/09/08 00:23:16;;;;;;;8.23;1.48;;;16.40;99.90;;;15.43;63.13;100976.63;4975089;28;20042;-77
2022/09/08 00:25:42;;;;;;;6.47;1.30;;;16.40;99.90;;;15.52;62.99;100983.16;4974598;28;20050;-77
2022/09/08 00:28:08;;;;;;;7.38;1.50;;;16.40;99.90;;;15.46;62.34;100984.38;4979696;28;20455;-77
2022/09/08 00:30:34;;;;;;;4.18;1.30;;;16.40;99.90;;;15.52;62.19;100980.50;4980982;28;20154;-78
2022/09/08 00:33:00;;;;;;;5.93;1.25;;;16.50;99.90;;;15.55;62.30;100986.47;4959488;28;20034;-76
2022/09/08 00:35:33;;;;;;;6.68;1.52;;;16.60;99.90;;;15.65;61.73;100985.88;4973630;28;20025;-77
2022/09/08 00:37:59;;;;;;;14.60;1.58;;;16.60;99.90;;;15.64;61.79;100977.09;4973000;28;20063;-77
2022/09/08 00:40:26;;;;;;;6.72;1.60;;;16.60;99.90;;;15.63;61.45;100980.66;4981729;28;20031;-77
2022/09/08 00:43:04;;;;;;;8.77;1.75;;;16.60;99.90;;;15.69;61.61;100984.75;4982805;28;20058;-78
2022/09/08 00:45:44;;;;;;;17.05;3.17;;;16.70;99.90;;;15.68;61.07;100975.94;4981153;28;20062;-77
2022/09/08 00:48:21;;;;;;;7.40;1.25;;;16.70;99.90;;;15.67;61.09;100979.53;4979870;28;20023;-77
2022/09/08 00:50:47;;;;;;;5.50;1.30;;;16.70;99.90;;;15.74;61.13;100975.59;4963148;28;20465;-77
2022/09/08 00:53:16;;;;;;;4.45;1.27;;;16.70;99.90;;;15.64;60.85;100977.09;4979796;28;20117;-78
2022/09/08 00:55:43;;;;;;;9.05;1.58;;;16.70;99.90;;;15.74;60.97;100980.91;4980306;28;20031;-77
2022/09/08 00:58:12;;;;;;;3.67;1.40;;;16.70;99.90;;;15.74;60.82;100974.72;4966130;28;20037;-78
2022/09/08 01:00:41;;;;;;;5.05;1.40;;;16.70;99.90;;;15.71;60.30;100978.41;4981021;28;20031;-77
2022/09/08 01:03:10;;;;;;;4.75;1.30;;;16.70;99.90;;;15.74;60.83;100983.56;4980321;28;20034;-77
2022/09/08 01:05:56;;;;;;;8.88;1.50;;;16.70;99.90;;;15.74;60.18;100974.72;4974568;28;20042;-77
2022/09/08 01:12:50;;;;;;;8.00;1.80;;;16.60;99.90;;;15.57;60.43;100976.63;4975435;28;20582;-77
2022/09/08 01:14:55;;;;;;;8.98;1.40;;;16.50;99.90;;;15.51;60.48;100981.47;4973621;28;20107;-77
2022/09/08 01:17:29;;;;;;;8.77;1.55;;;16.50;99.90;;;15.47;60.65;100987.91;4963315;28;20133;-77
2022/09/08 01:19:58;;;;;;;7.95;1.60;;;16.50;99.90;;;15.49;60.61;100988.69;4977103;28;20031;-77
2022/09/08 01:22:43;;;;;;;4.43;1.60;;;16.50;99.90;;;15.49;60.60;100984.22;4961403;28;20463;-77
2022/09/08 01:26:06;;;;;;;9.70;1.63;;;16.40;99.90;;;15.33;60.17;100978.16;4980637;28;20031;-78
2022/09/08 01:29:00;;;;;;;5.10;1.30;;;16.40;99.90;;;15.31;60.52;100975.63;4948018;28;20554;-77
2022/09/08 01:31:30;;;;;;;7.35;1.52;;;16.30;99.90;;;15.35;60.71;100984.22;4986202;28;20027;-77
2022/09/08 01:33:57;;;;;;;10.40;1.58;;;16.30;99.90;;;15.26;60.71;100987.44;4964148;28;20058;-77
2022/09/08 01:36:23;;;;;;;5.28;1.50;;;16.30;99.90;;;15.27;60.92;100974.09;4979711;28;20038;-77
2022/09/08 01:38:49;;;;;;;3.95;1.50;;;16.20;99.90;;;15.22;60.71;100981.47;4978316;28;20083;-77
2022/09/08 01:41:15;;;;;;;3.95;1.50;;;16.20;99.90;;;15.20;61.05;100967.44;4979695;28;20041;-77
2022/09/08 01:43:41;;;;;;;4.57;1.35;;;16.20;99.90;;;15.23;61.05;100977.03;4973350;28;20031;-77
2022/09/08 01:46:07;;;;;;;4.97;1.60;;;16.20;99.90;;;15.20;61.04;100983.38;4978171;28;20170;-77
2022/09/08 01:48:33;;;;;;;3.53;1.95;;;16.20;99.90;;;15.23;61.27;100972.59;4976691;28;20074;-77
2022/09/08 01:51:00;;;;;;;;;;;16.20;99.90;;;15.13;61.03;100974.94;4977280;28;20050;-77
2022/09/08 01:53:28;;;;;;;4.95;1.77;;;16.10;99.90;;;15.12;61.67;100969.75;4962378;28;19910;-77
2022/09/08 01:55:54;;;;;;;11.65;1.73;;;16.10;99.90;;;15.14;61.78;100967.81;4963971;28;20436;-77
2022/09/08 01:58:19;;;;;;;10.30;1.75;;;16.10;99.90;;;15.06;61.78;100965.66;4978356;28;20031;-77
2022/09/08 02:00:52;;;;;;;7.00;1.50;;;16.10;99.90;;;15.07;61.91;100969.16;4977214;28;20034;-77
2022/09/08 02:03:18;;;;;;;8.38;1.77;;;16.10;99.90;;;15.13;61.86;100974.09;4975790;28;20083;-76
2022/09/08 02:05:44;;;;;;;8.57;1.63;;;16.10;99.90;;;15.13;61.99;100979.41;4980150;28;20029;-77
2022/09/08 02:08:11;;;;;;;4.70;1.33;;;16.20;99.90;;;15.13;62.11;100971.44;4977699;28;20062;-77
2022/09/08 02:10:38;;;;;;;9.10;1.85;;;16.10;99.90;;;15.09;62.43;100968.13;4977867;28;20046;-77
2022/09/08 02:13:05;;;;;;;6.40;1.50;;;16.10;99.90;;;15.11;62.27;100974.19;4975732;28;20121;-77
2022/09/08 02:15:31;;;;;;;5.50;1.38;;;16.10;99.90;;;15.11;61.94;100978.63;4977839;28;20035;-77
2022/09/08 02:17:58;;;;;;;3.15;1.42;;;16.10;99.90;;;15.06;61.91;100978.94;4975001;28;20034;-77
2022/09/08 02:20:24;;;;;;;14.73;1.73;;;16.10;99.90;;;15.10;62.00;100977.78;4971841;28;20042;-77
2022/09/08 02:22:53;;;;;;;12.32;1.77;;;16.10;99.90;;;15.12;62.34;100980.34;4961516;28;20240;-77
2022/09/08 02:25:26;;;;;;;6.25;1.63;;;16.10;99.90;;;15.21;62.14;100973.63;4976640;28;20139;-77
2022/09/08 02:27:53;;;;;;;7.97;1.58;;;16.20;99.90;;;15.23;62.10;100987.66;4984962;28;20106;-77
2022/09/08 02:30:19;;;;;;;8.27;1.50;;;16.20;99.90;;;15.12;62.30;100983.00;4978259;28;20203;-77
2022/09/08 02:32:48;;;;;;;7.53;1.92;;;16.10;99.90;;;15.16;62.26;100982.72;4972876;28;20027;-77
2022/09/08 02:35:14;;;;;;;6.90;1.80;;;16.20;99.90;;;15.22;62.59;100996.53;4963211;28;20097;-77
2022/09/08 02:37:40;;;;;;;6.20;1.70;;;16.20;99.90;;;15.20;62.30;100986.03;4977816;28;20636;-78
2022/09/08 02:40:07;;;;;;;11.57;1.83;;;16.20;99.90;;;15.18;62.25;100978.19;4971926;28;20034;-77
2022/09/08 02:42:33;;;;;;;6.18;1.63;;;16.20;99.90;;;15.18;62.33;100972.00;4978190;28;20037;-77
2022/09/08 02:44:59;;;;;;;4.40;1.80;;;16.20;99.90;;;15.17;62.81;100960.53;4977605;28;20027;-77
2022/09/08 02:47:25;;;;;;;13.50;1.70;;;16.10;99.90;;;15.08;62.62;100953.16;4977893;28;20121;-76
2022/09/08 02:49:55;;;;;;;12.73;1.73;;;16.10;99.90;;;15.09;62.32;100949.56;4977786;28;20033;-77
2022/09/08 02:52:21;;;;;;;8.13;1.92;;;16.10;99.90;;;15.01;62.16;100945.66;4977001;28;20034;-77
2022/09/08 02:54:47;;;;;;;5.05;1.42;;;16.10;99.90;;;15.05;62.10;100933.94;4978662;28;20119;-78
2022/09/08 02:57:13;;;;;;;3.05;1.35;;;16.00;99.90;;;15.00;62.27;100933.38;4976960;28;20124;-77
2022/09/08 02:59:38;;;;;;;;;;;16.00;99.90;;;14.91;62.11;100940.09;4981671;28;20034;-77
2022/09/08 03:02:04;;;;;;;9.13;2.10;;;15.90;99.90;;;14.81;62.32;100946.91;4979395;28;19937;-77
2022/09/08 03:04:30;;;;;;;10.82;1.88;;;15.80;99.90;;;14.73;62.41;100942.94;4987341;28;20026;-77
2022/09/08 03:06:58;;;;;;;8.65;1.67;;;15.80;99.90;;;14.71;62.00;100939.50;4981744;28;20977;-77
2022/09/08 03:09:24;;;;;;;6.65;1.80;;;15.70;99.90;;;14.72;62.12;100945.66;4978383;28;20043;-77
2022/09/08 03:11:50;;;;;;;6.05;1.70;;;15.70;99.90;;;14.62;62.06;100940.06;4975642;28;20054;-77
2022/09/08 03:14:16;;;;;;;17.27;1.70;;;15.70;99.90;;;14.63;61.89;100946.22;4955077;28;20110;-77
2022/09/08 03:16:42;;;;;;;5.35;1.75;;;15.70;99.90;;;14.63;62.04;100947.06;4976360;28;20070;-77
2022/09/08 03:19:08;;;;;;;6.85;1.98;;;15.70;99.90;;;14.59;61.56;100950.00;4955190;28;20139;-77
2022/09/08 03:21:41;;;;;;;7.78;2.00;;;15.60;99.90;;;14.57;61.33;100936.84;4977599;28;20110;-77
2022/09/08 03:24:07;;;;;;;7.53;1.50;;;15.60;99.90;;;14.60;61.45;100931.38;4975697;28;20035;-77
2022/09/08 03:26:33;;;;;;;5.82;1.67;;;15.60;99.90;;;14.57;61.35;100915.63;4977270;28;20025;-77
2022/09/08 03:28:59;;;;;;;9.63;2.10;;;15.60;99.90;;;14.52;61.46;100902.63;4970745;28;20484;-78
2022/09/08 03:31:24;;;;;;;;;;;15.60;99.90;;;14.36;61.34;100901.84;4976945;28;20102;-76
2022/09/08 03:33:55;;;;;;;8.32;1.60;;;15.50;99.90;;;14.32;62.07;100892.41;4974867;28;19914;-78
2022/09/08 03:36:21;;;;;;;4.82;1.70;;;15.40;99.90;;;14.26;61.82;100898.06;4976598;28;20069;-77
2022/09/08 03:38:47;;;;;;;12.00;1.70;;;15.40;99.90;;;14.26;61.97;100895.41;4976523;28;20053;-77
2022/09/08 03:41:15;;;;;;;6.97;1.70;;;15.30;99.90;;;14.15;62.10;100891.59;4976636;28;20046;-77
2022/09/08 03:43:50;;;;;;;4.85;2.05;;;15.30;99.90;;;14.21;62.71;100897.44;4976861;28;20031;-77
2022/09/08 03:46:16;;;;;;;6.35;1.77;;;15.30;99.90;;;14.17;62.96;100896.81;4976835;28;20023;-76
2022/09/08 03:48:43;;;;;;;8.07;1.98;;;15.20;99.90;;;14.12;62.99;100896.19;4957698;28;20086;-77
2022/09/08 03:51:24;;;;;;;6.18;2.10;;;15.20;99.90;;;14.14;63.44;100896.97;4959969;28;20038;-77
2022/09/08 03:54:46;;;;;;;7.80;2.17;;;15.20;99.90;;;14.11;64.06;100899.81;4976156;28;20038;-78
2022/09/08 03:56:40;;;;;;;6.60;1.80;;;15.20;99.90;;;14.13;64.01;100893.47;4970870;28;20573;-77
2022/09/08 03:59:06;;;;;;;8.05;1.85;;;15.20;99.90;;;14.12;63.77;100893.56;4972239;28;20085;-77
2022/09/08 04:01:33;;;;;;;4.72;1.73;;;15.20;99.90;;;14.11;63.99;100892.69;4977727;28;20149;-76
2022/09/08 04:04:01;;;;;;;6.63;1.88;;;15.10;99.90;;;14.11;64.02;100897.16;4977419;28;20058;-77
2022/09/08 04:06:30;;;;;;;14.85;2.38;;;15.10;99.90;;;14.09;64.34;100893.75;4978027;28;20114;-76
2022/09/08 04:08:56;;;;;;;10.32;1.98;;;15.10;99.90;;;14.07;64.82;100891.19;4968286;28;20055;-77
2022/09/08 04:11:23;;;;;;;9.90;1.83;;;15.10;99.90;;;14.04;65.34;100883.44;4978180;28;20082;-77
2022/09/08 04:13:50;;;;;;;11.45;2.50;;;15.10;99.90;;;14.02;66.36;100890.59;4977698;28;20047;-77
2022/09/08 04:16:19;;;;;;;4.05;1.50;;;15.10;99.90;;;13.97;67.12;100883.84;4977210;28;20507;-77
2022/09/08 04:18:45;;;;;;;12.45;1.85;;;15.10;99.90;;;13.97;68.03;100889.16;4976769;28;20034;-77
2022/09/08 04:21:11;;;;;;;9.60;1.80;;;15.00;99.90;;;13.90;69.18;100886.84;4974702;28;20042;-77
2022/09/08 04:23:38;;;;;;;12.45;1.70;;;15.00;99.90;;;13.84;70.45;100892.50;4977563;28;20054;-77
2022/09/08 04:26:12;;;;;;;8.40;1.67;;;15.00;99.90;;;13.80;71.35;100888.34;4976054;28;20023;-78
2022/09/08 04:28:39;;;;;;;16.27;2.17;;;15.00;99.90;;;13.81;71.07;100881.25;4978559;28;20135;-77
2022/09/08 04:31:11;;;;;;;12.27;1.85;;;15.00;99.90;;;13.88;71.42;100882.59;4970424;28;20039;-78
2022/09/08 04:33:40;;;;;;;12.77;2.08;;;;;;;13.71;72.48;100883.56;4969781;28;20142;-78
2022/09/08 04:36:16;;;;;;;8.88;2.40;;;14.90;99.90;;;13.79;72.48;100884.00;4971508;28;20034;-78
2022/09/08 04:38:45;;;;;;;8.75;1.88;;;14.90;99.90;;;13.75;72.79;100885.94;4976462;28;20022;-77
2022/09/08 04:41:15;;;;;;;6.28;1.88;;;14.90;99.90;;;13.72;73.63;100885.28;4979347;28;20035;-77
2022/09/08 04:43:42;;;;;;;5.72;2.08;;;14.80;99.90;;;13.71;73.59;100881.78;4977277;28;20035;-77
2022/09/08 04:46:12;;;;;;;7.20;2.22;;;14.80;99.90;;;13.77;73.16;100879.72;4953626;28;20030;-78
2022/09/08 04:48:40;;;;;;;7.47;1.90;;;14.80;99.90;;;13.72;73.55;100883.50;4961960;28;20104;-77
2022/09/08 04:51:08;;;;;;;8.15;2.28;;;14.80;99.90;;;13.77;73.24;100892.97;4992293;23;20047;-75
2022/09/08 04:53:37;;;;;;;7.68;2.40;;;14.80;99.90;;;13.79;73.25;100894.56;4967236;28;20081;-74
2022/09/08 04:56:06;;;;;;;6.18;2.22;;;14.80;99.90;;;13.72;73.83;100888.78;4980900;28;20046;-74
2022/09/08 04:58:36;;;;;;;6.00;2.03;;;14.80;99.90;;;13.79;73.61;100907.81;4978903;28;20543;-74
2022/09/08 05:01:31;;;;;;;6.05;1.85;;;14.80;99.90;;;13.81;73.54;100897.13;4976937;28;20086;-74
2022/09/08 05:04:00;;;;;;;10.63;2.30;;;14.80;99.90;;;13.74;73.89;100889.53;4970087;28;20047;-74
2022/09/08 05:06:28;;;;;;;10.13;2.17;;;14.80;99.90;;;13.77;73.74;100885.88;4976997;28;20027;-74
2022/09/08 05:08:56;;;;;;;8.38;2.08;;;14.80;99.90;;;13.79;73.97;100885.78;4977566;28;20027;-74
2022/09/08 05:11:25;;;;;;;13.30;2.88;;;14.80;99.90;;;13.84;73.45;100889.00;4976866;28;20102;-74
2022/09/08 05:13:51;;;;;;;4.75;1.80;;;14.90;99.90;;;13.97;73.08;100889.16;4978952;28;20035;-74
2022/09/08 05:16:21;;;;;;;10.73;2.25;;;14.90;99.90;;;14.00;73.20;100892.50;4980452;28;20053;-74
2022/09/08 05:18:53;;;;;;;6.80;2.10;;;15.00;99.90;;;14.07;72.95;100891.19;4980900;28;20038;-74
2022/09/08 05:21:20;;;;;;;14.90;2.05;;;15.10;99.90;;;14.32;72.27;100884.44;4982244;28;20030;-74
2022/09/08 05:23:52;;;;;;;12.02;1.80;;;15.20;99.90;;;14.46;71.89;100897.69;4981666;28;20463;-74
2022/09/08 05:26:20;;;;;;;6.80;1.95;;;15.30;99.90;;;14.75;70.85;100900.41;4981732;28;20030;-74
2022/09/08 05:28:47;;;;;;;12.45;2.10;;;15.50;99.90;;;15.01;70.32;100903.25;4979284;28;20044;-74
2022/09/08 05:31:17;;;;;;;6.72;2.20;;;15.60;99.90;;;15.17;69.47;100896.03;4980978;28;20034;-74
2022/09/08 05:33:43;;;;;;;8.05;2.03;;;15.70;99.90;;;15.17;69.31;100898.69;4980376;28;20492;-75
2022/09/08 05:36:20;;;;;;;5.70;2.10;;;15.90;99.90;;;15.64;68.28;100897.47;4979618;28;20050;-74
2022/09/08 05:38:47;;;;;;;8.68;1.65;;;16.10;99.90;;;15.78;67.52;100897.41;4979777;28;20038;-74
2022/09/08 05:41:14;;;;;;;7.90;2.30;;;16.10;99.90;;;15.55;68.13;100888.28;4980856;28;20030;-74
2022/09/08 05:43:40;;;;;;;7.68;2.00;;;16.10;99.90;;;15.49;68.16;100895.81;4979725;28;20038;-74
2022/09/08 05:46:06;;;;;;;12.10;1.92;;;16.20;99.90;;;15.41;68.18;100893.63;4980077;28;20035;-74
2022/09/08 05:48:35;;;;;;;9.55;2.40;;;16.30;99.90;;;15.71;67.56;100904.09;4982212;28;20030;-74
2022/09/08 05:51:02;;;;;;;9.45;1.80;;;16.30;99.90;;;15.72;67.59;100894.31;4979199;28;20684;-74
2022/09/08 05:53:28;;;;;;;5.03;2.05;;;16.40;99.90;;;15.83;66.74;100891.84;4981126;28;20410;-74
2022/09/08 05:56:05;;;;;;;15.95;2.13;;;16.40;99.90;;;15.87;66.73;100876.53;4981211;28;20078;-74
2022/09/08 05:58:31;;;;;;;6.80;2.05;;;16.40;99.90;;;15.98;65.83;100879.31;4977287;28;20034;-74
2022/09/08 06:00:59;;;;;;;11.20;1.90;;;16.60;99.90;;;16.58;65.05;100873.44;4978745;28;20121;-74
2022/09/08 06:03:26;;;;;;;6.70;1.90;;;16.70;99.90;;;16.53;64.59;100872.91;4980291;28;20022;-74
2022/09/08 06:05:54;;;;;;;11.60;2.03;;;16.80;99.90;;;16.51;64.42;100866.00;4979519;28;20036;-74
2022/09/08 06:08:23;;;;;;;2.60;1.70;;;16.90;99.90;;;16.52;64.59;100875.66;4964784;28;20038;-75
2022/09/08 06:10:51;;;;;;;8.25;1.88;;;16.90;99.90;;;16.37;64.56;100872.25;4976156;28;20050;-74
2022/09/08 06:13:18;;;;;;;4.82;1.80;;;17.00;99.90;;;16.53;64.56;100864.09;4978673;28;20039;-74
2022/09/08 06:15:44;;;;;;;4.97;1.70;;;17.10;99.90;;;16.61;64.32;100867.91;4980217;28;20042;-74
2022/09/08 06:18:11;;;;;;;11.23;2.17;;;17.10;99.90;;;16.49;65.04;100879.38;4980152;28;20093;-74
2022/09/08 06:20:37;;;;;;;6.68;2.25;;;17.20;99.90;;;16.64;64.42;100881.97;4978818;28;20499;-74
2022/09/08 06:23:05;;;;;;;11.85;1.90;;;17.20;99.90;;;16.66;64.52;100888.03;4980301;28;20044;-74
2022/09/08 06:25:37;;;;;;;7.65;1.77;;;17.30;99.90;;;16.85;64.01;100877.81;4978275;28;20023;-74
2022/09/08 06:28:24;;;;;;;14.65;2.08;;;17.40;99.90;;;16.90;64.17;100883.66;4979883;28;20081;-74
2022/09/08 06:30:50;;;;;;;9.50;2.22;;;17.50;99.90;;;17.21;63.04;100897.44;4978332;28;20041;-74
2022/09/08 06:33:27;;;;;;;8.23;1.80;;;17.60;99.90;;;17.11;63.07;100893.75;4979172;28;20402;-74
2022/09/08 06:36:15;;;;;;;6.22;1.80;;;17.70;99.90;;;17.18;63.20;100889.69;4980146;28;20042;-74
2022/09/08 06:38:56;;;;;;;9.32;2.45;;;17.80;99.90;;;17.16;62.78;100889.78;4975935;28;20067;-74
2022/09/08 06:41:33;;;;;;;11.60;1.90;;;17.70;99.90;;;16.69;63.55;100887.78;4971098;28;20037;-74
2022/09/08 06:44:08;;;;;;;6.25;1.88;;;17.70;99.90;;;16.91;63.26;100879.19;4980532;28;20119;-74
2022/09/08 06:46:39;;;;;;;11.30;2.08;;;17.70;99.90;;;17.06;63.66;100886.06;4979552;28;20037;-73
2022/09/08 06:49:07;;;;;;;6.28;1.83;;;17.60;99.90;;;16.79;63.94;100871.09;4978407;28;20031;-74
2022/09/08 06:51:58;;;;;;;6.78;1.83;;;17.70;99.90;;;16.91;63.16;100860.56;4979076;28;20034;-74
2022/09/08 06:54:39;;;;;;;5.95;2.10;;;17.80;99.90;;;16.99;63.29;100863.53;4977928;28;20026;-74
2022/09/08 06:57:36;;;;;;;2.90;1.60;;;17.70;99.90;;;17.07;62.84;100863.00;4980197;28;20097;-74
2022/09/08 07:00:14;;;;;;;6.10;2.00;;;17.90;99.90;;;17.32;62.70;100862.94;4978453;28;20046;-74
2022/09/08 07:03:09;;;;;;;7.30;1.85;;;18.00;99.90;;;17.30;61.90;100859.53;4976406;28;20065;-74
2022/09/08 07:06:16;;;;;;;4.82;1.83;;;18.10;99.90;;;17.55;61.52;100850.56;4977282;28;20117;-74
2022/09/08 07:09:28;;;;;;;7.05;1.98;;;18.20;99.90;;;17.56;60.73;100849.63;4978386;28;20045;-75
2022/09/08 07:12:08;;;;;;;5.72;2.03;;;18.30;99.90;;;17.53;60.96;100849.00;4929432;29;20036;-74
2022/09/08 07:14:51;;;;;;;4.88;2.20;;;18.40;99.90;;;17.70;60.59;100840.59;4974248;28;20039;-74
2022/09/08 07:17:35;;;;;;;3.30;1.70;;;18.30;99.90;;;17.43;60.76;100839.03;4978784;28;20402;-75
2022/09/08 07:20:04;;;;;;;8.57;1.80;;;18.30;99.90;;;17.37;60.56;100831.50;4980186;28;20054;-75
2022/09/08 07:22:39;;;;;;;7.28;2.08;;;18.20;99.90;;;17.30;61.09;100838.25;4978596;28;20117;-74
2022/09/08 07:25:16;;;;;;;9.05;2.20;;;18.20;99.90;;;17.39;61.16;100832.22;4979322;28;20494;-74
2022/09/08 07:27:45;;;;;;;11.43;2.25;;;18.20;99.90;;;17.48;59.96;100824.53;4975180;28;20108;-75
2022/09/08 07:30:18;;;;;;;8.35;2.17;;;18.20;99.90;;;17.47;59.87;100830.81;4977482;28;20049;-74
2022/09/08 07:32:56;;;;;;;7.28;2.13;;;18.20;99.90;;;17.35;59.80;100822.78;4977672;28;20033;-74
2022/09/08 07:35:31;;;;;;;5.45;1.90;;;18.10;99.90;;;17.17;59.71;100829.44;4979196;28;20027;-74
2022/09/08 07:38:08;;;;;;;6.40;1.95;;;18.20;99.90;;;17.33;58.61;100840.66;4979079;28;20040;-74
2022/09/08 07:40:33;;;;;;;8.05;2.20;;;18.20;99.90;;;17.34;58.75;100839.72;4976575;28;20710;-74
2022/09/08 07:43:00;;;;;;;6.53;2.28;;;18.20;99.90;;;17.49;58.12;100840.38;4977174;28;20027;-74
2022/09/08 07:46:01;;;;;;;6.47;2.40;;;18.30;99.90;;;17.60;57.16;100842.25;4978789;28;20034;-74
2022/09/08 07:48:41;;;;;;;6.88;1.95;;;18.30;99.90;;;17.79;56.70;100839.06;4978127;28;20688;-74
2022/09/08 07:51:14;;;;;;;7.15;2.25;;;18.70;99.90;;;18.18;55.69;100840.53;4974801;28;20045;-74
2022/09/08 07:53:51;;;;;;;8.95;2.50;;;18.90;99.90;;;18.62;54.68;100838.91;4975551;28;20038;-75
2022/09/08 07:56:41;;;;;;;5.03;2.33;;;19.10;99.00;;;18.56;53.76;100833.22;4979083;28;20030;-74
2022/09/08 07:59:40;;;;;;;5.78;2.60;;;19.30;99.10;;;18.42;53.31;100844.94;4979829;28;20108;-74
2022/09/08 08:02:33;;;;;;;5.25;2.45;;;19.30;97.90;;;19.03;52.82;100853.47;4977648;28;20038;-75
2022/09/08 08:05:31;;;;;;;11.00;2.67;;;20.00;98.00;;;20.60;50.59;100866.34;4976496;28;20093;-74
2022/09/08 08:08:17;;;;;;;12.23;2.80;;;20.90;96.10;;;20.46;48.71;100856.81;4979726;28;20030;-74
2022/09/08 08:11:03;;;;;;;5.50;2.38;;;21.40;95.80;;;21.40;47.89;100860.13;4975143;28;20030;-74
2022/09/08 08:14:18;;;;;;;11.88;2.88;;;22.00;94.10;;;21.40;46.48;100852.09;4977527;28;20041;-74
2022/09/08 08:17:20;;;;;;;7.82;2.40;;;22.20;94.10;;;21.13;47.18;100855.44;4975185;28;20156;-75
2022/09/08 08:20:06;;;;;;;7.55;2.60;;;21.60;93.80;;;20.30;48.76;100843.91;4976285;28;20034;-74
2022/09/08 08:22:56;;;;;;;5.78;2.55;;;21.30;94.70;;;20.06;49.66;100836.16;4978829;28;20089;-74
2022/09/08 08:25:51;;;;;;;9.07;2.15;;;20.90;94.80;;;19.66;51.05;100837.66;4977141;28;20105;-74
2022/09/08 08:28:20;;;;;;;9.13;3.28;;;20.60;95.00;;;19.40;51.10;100828.28;4962769;28;20182;-75
2022/09/08 08:31:24;;;;;;;8.65;2.40;;;20.50;95.70;;;19.62;50.77;100816.69;4975239;28;20651;-74
2022/09/08 08:34:04;;;;;;;5.28;2.63;;;20.40;96.20;;;19.34;51.66;100821.63;4976558;28;20035;-74
2022/09/08 08:36:35;;;;;;;13.05;2.90;;;20.30;96.00;;;19.43;51.53;100831.53;4978360;28;20019;-74
2022/09/08 08:39:15;;;;;;;9.15;2.75;;;20.20;96.10;;;19.34;51.51;100826.13;4974983;28;20036;-74
2022/09/08 08:42:19;;;;;;;8.80;2.70;;;20.10;96.20;;;19.26;51.41;100816.06;4977241;28;20054;-75
2022/09/08 08:45:16;;;;;;;14.30;2.83;;;20.10;96.30;;;19.28;52.64;100827.47;4978465;28;20030;-74
2022/09/08 08:48:17;;;;;;;17.02;2.92;;;20.20;96.60;;;19.19;52.20;100817.53;4977266;28;20042;-74
2022/09/08 08:51:13;;;;;;;5.65;2.53;;;19.90;97.20;;;19.04;53.00;100806.28;4981486;28;20046;-74
2022/09/08 08:54:31;;;;;;;9.13;2.33;;;20.00;97.20;;;19.11;52.09;100811.97;4980296;28;20118;-74
2022/09/08 08:57:44;;;;;;;7.45;2.20;;;19.70;96.30;;;18.67;52.84;100797.69;4982260;28;20353;-74
2022/09/08 09:00:31;;;;;;;9.57;2.90;;;19.70;97.00;;;18.76;53.40;100794.28;4974156;28;20111;-74
2022/09/08 09:03:43;;;;;;;11.70;2.90;;;19.70;97.10;;;18.76;53.03;100802.28;4980760;28;20561;-73
2022/09/08 09:06:49;;;;;;;10.00;3.05;;;19.60;97.30;;;18.54;54.24;100787.16;4983311;28;20053;-74
2022/09/08 09:09:36;;;;;;;16.08;3.00;;;19.60;97.80;;;18.70;54.47;100797.44;4981056;28;20049;-74
2022/09/08 09:12:58;;;;;;;12.02;2.60;;;19.40;99.70;;;18.26;57.76;100793.81;4977824;28;20105;-74
2022/09/08 09:15:32;;;;;;;8.20;2.75;;;19.10;99.90;;;17.86;59.13;100791.53;4982310;28;20045;-74
2022/09/08 09:18:45;;;;;;;5.15;2.35;;;18.80;99.90;;;17.80;60.04;100787.50;4979708;28;20026;-74
2022/09/08 09:21:45;;;;;;;10.38;3.20;;;18.90;99.90;;;18.13;60.03;100772.59;4981958;28;20092;-74
2022/09/08 09:25:09;;;;;;;9.88;2.20;;;18.80;99.90;;;17.93;60.53;100782.97;4982655;28;20038;-74
2022/09/08 09:28:16;;;;;;;7.68;2.28;;;18.80;99.90;;;17.57;60.86;100782.09;4980784;28;20296;-74
2022/09/08 09:31:21;;;;;;;7.00;2.53;;;18.60;99.90;;;17.39;61.70;100784.31;4981250;28;20041;-74
2022/09/08 09:35:04;;;;;;;4.88;2.17;;;18.40;99.90;;;16.99;63.07;100792.56;4980902;28;20027;-74
2022/09/08 09:37:51;;;;;;;15.20;3.35;;;18.10;99.90;;;16.91;64.48;100783.44;4960954;28;20108;-74
2022/09/08 09:40:26;;;;;;;6.93;2.67;;;18.10;99.90;;;17.12;63.95;100783.69;4980587;28;20105;-74
2022/09/08 09:43:10;;;;;;;7.53;2.60;;;18.10;99.90;;;17.12;63.93;100783.69;4978838;28;20035;-74
2022/09/08 09:46:19;;;;;;;7.05;2.10;;;17.90;99.90;;;16.67;65.53;100776.22;4980229;28;20404;-75
2022/09/08 09:49:08;;;;;;;8.88;2.72;;;17.90;99.90;;;16.94;65.48;100783.22;4980094;28;20562;-74
2022/09/08 09:51:49;;;;;;;7.95;2.50;;;17.90;99.90;;;16.93;64.95;100766.44;4980465;28;20137;-74
2022/09/08 09:55:11;;;;;;;6.75;2.33;;;17.90;99.90;;;17.11;64.73;100764.22;4980910;28;20026;-74
2022/09/08 09:58:27;;;;;;;9.82;2.33;;;18.00;99.90;;;17.08;65.10;100761.78;4980144;28;20041;-74
2022/09/08 10:01:15;;;;;;;10.18;2.08;;;17.90;99.90;;;16.94;65.49;100753.97;4978582;28;20062;-74
2022/09/08 10:04:24;;;;;;;11.35;2.95;;;17.80;99.90;;;16.90;65.68;100752.50;4980547;28;20584;-74
2022/09/08 10:07:34;;;;;;;8.07;2.45;;;17.90;99.90;;;17.15;65.17;100746.25;4978743;28;20022;-74
2022/09/08 10:10:34;;;;;;;13.57;3.05;;;18.20;99.90;;;17.57;64.19;100742.16;4958313;28;20091;-74
2022/09/08 10:14:07;;;;;;;8.25;2.35;;;18.30;99.90;;;17.67;63.79;100750.31;4979646;28;20042;-74
2022/09/08 10:17:16;;;;;;;12.68;2.92;;;18.60;99.90;;;18.08;62.62;100737.44;4904870;29;20067;-74
2022/09/08 10:20:03;;;;;;;5.53;2.58;;;18.70;99.90;;;17.94;61.61;100747.38;4979735;28;20034;-74
2022/09/08 10:23:18;;;;;;;10.77;3.05;;;18.80;99.90;;;18.21;62.04;100751.53;4981341;28;20041;-74
2022/09/08 10:26:44;;;;;;;9.10;3.17;;;19.10;99.90;;;18.32;60.48;100740.88;4978432;28;20038;-74
2022/09/08 10:30:07;;;;;;;7.93;2.60;;;19.30;99.90;;;18.51;60.35;100742.94;4959318;28;20046;-74
2022/09/08 10:33:26;;;;;;;10.50;3.50;;;19.30;99.90;;;18.54;60.73;100732.00;4971280;28;20582;-74
2022/09/08 10:35:59;;;;;;;7.07;2.70;;;19.30;99.90;;;18.56;61.23;100735.41;4976406;28;20121;-74
2022/09/08 10:38:58;;;;;;;7.32;3.30;;;19.20;99.90;;;18.38;61.54;100729.72;4963820;28;20038;-74
2022/09/08 10:42:25;;;;;;;13.82;2.72;;;19.30;99.90;;;18.49;61.51;100726.19;4978029;28;20122;-74
2022/09/08 10:45:36;;;;;;;11.07;2.80;;;19.20;99.90;;;18.20;61.80;100716.00;4945660;28;20038;-74
2022/09/08 10:49:16;;;;;;;11.98;3.38;;;19.30;99.90;;;18.39;61.60;100712.75;4980231;28;20038;-74
2022/09/08 10:52:25;;;;;;;13.23;3.05;;;19.30;99.90;;;18.40;61.52;100717.13;4978289;28;20061;-74
2022/09/08 10:55:12;;;;;;;10.38;2.97;;;19.30;99.90;;;18.21;61.51;100709.72;4964278;28;20046;-74
2022/09/08 10:58:02;;;;;;;;;;;19.20;99.90;;;18.09;61.93;100708.03;4978648;28;20402;-74
2022/09/08 11:00:48;;;;;;;9.70;3.22;;;19.10;99.90;;;18.33;62.36;100710.56;4977715;28;19910;-74
2022/09/08 11:03:48;;;;;;;9.88;3.08;;;19.10;99.90;;;18.07;62.51;100704.63;4978902;28;20041;-74